createdAt,value
2018-05-05T00:01:10.343Z,10.02
2018-05-05T00:03:40.161Z,9.99
2018-05-05T00:06:09.211Z,9.89
2018-05-05T00:08:38.420Z,9.85
2018-05-05T00:11:08.393Z,9.83
2018-05-05T00:13:37.322Z,9.79
2018-05-05T00:16:06.654Z,9.80
2018-05-05T00:18:35.800Z,9.85
2018-05-05T00:21:04.835Z,9.80
2018-05-05T00:23:33.768Z,9.74
2018-05-05T00:26:03.104Z,9.71
2018-05-05T00:28:32.095Z,9.73
2018-05-05T00:31:01.319Z,9.70
2018-05-05T00:33:30.355Z,9.67
2018-05-05T00:35:59.484Z,9.66
2018-05-05T00:38:28.310Z,9.67
2018-05-05T00:40:57.162Z,9.66
2018-05-05T00:43:25.997Z,9.57
2018-05-05T00:45:55.327Z,9.48
2018-05-05T00:48:24.396Z,9.44
2018-05-05T00:50:53.493Z,9.44
2018-05-05T00:53:22.634Z,9.41
2018-05-05T00:55:51.636Z,9.36
2018-05-05T00:58:20.165Z,9.34
2018-05-05T01:00:48.903Z,9.33
2018-05-05T01:03:18.272Z,9.33
2018-05-05T01:05:47.449Z,9.32
2018-05-05T01:08:16.646Z,9.29
2018-05-05T01:10:45.699Z,9.26
2018-05-05T01:13:14.683Z,9.23
2018-05-05T01:15:43.809Z,9.18
2018-05-05T01:18:13.026Z,9.16
2018-05-05T01:20:42.071Z,9.11
2018-05-05T01:23:11.359Z,9.10
2018-05-05T01:25:43.021Z,9.06
2018-05-05T01:28:12.103Z,9.01
2018-05-05T01:30:41.854Z,8.99
2018-05-05T01:33:10.873Z,8.97
2018-05-05T01:35:40.101Z,8.95
2018-05-05T01:38:08.742Z,8.93
2018-05-05T01:40:38.113Z,8.91
2018-05-05T01:43:07.055Z,8.83
2018-05-05T01:45:36.140Z,8.77
2018-05-05T01:48:05.311Z,8.73
2018-05-05T01:50:34.562Z,8.75
2018-05-05T01:58:32.717Z,8.75
2018-05-05T02:01:02.667Z,8.77
2018-05-05T02:03:31.722Z,8.77
2018-05-05T02:06:00.783Z,8.78
2018-05-05T02:08:30.158Z,8.79
2018-05-05T02:10:59.284Z,8.77
2018-05-05T02:13:28.203Z,8.75
2018-05-05T02:15:57.160Z,8.71
2018-05-05T02:18:26.237Z,8.65
2018-05-05T02:20:55.437Z,8.60
2018-05-05T02:23:24.211Z,8.54
2018-05-05T02:25:53.477Z,8.50
2018-05-05T02:28:22.409Z,8.53
2018-05-05T02:30:51.673Z,8.54
2018-05-05T02:33:20.629Z,8.50
2018-05-05T02:35:51.924Z,8.44
2018-05-05T02:38:21.271Z,8.41
2018-05-05T02:40:50.572Z,8.42
2018-05-05T02:43:19.560Z,8.42
2018-05-05T02:45:49.755Z,8.42
2018-05-05T02:48:19.285Z,8.44
2018-05-05T02:50:49.752Z,8.43
2018-05-05T02:53:19.046Z,8.42
2018-05-05T02:55:48.139Z,8.38
2018-05-05T02:58:17.062Z,8.37
2018-05-05T03:00:46.338Z,8.30
2018-05-05T03:03:15.871Z,8.24
2018-05-05T03:05:45.344Z,8.23
2018-05-05T03:08:14.535Z,8.20
2018-05-05T03:10:43.409Z,8.20
2018-05-05T03:13:12.209Z,8.21
2018-05-05T03:15:39.946Z,8.23
2018-05-05T03:18:08.917Z,8.24
2018-05-05T03:20:37.954Z,8.22
2018-05-05T03:23:07.237Z,8.23
2018-05-05T03:25:36.713Z,8.24
2018-05-05T03:28:06.783Z,8.24
2018-05-05T03:30:35.999Z,8.23
2018-05-05T03:33:04.543Z,8.18
2018-05-05T03:35:33.574Z,8.11
2018-05-05T03:38:02.444Z,8.05
2018-05-05T03:40:31.470Z,7.93
2018-05-05T03:43:00.096Z,7.93
2018-05-05T03:45:29.192Z,7.95
2018-05-05T03:47:58.442Z,7.95
2018-05-05T03:50:27.270Z,8.04
2018-05-05T03:52:56.688Z,8.06
2018-05-05T03:55:25.951Z,8.01
2018-05-05T03:57:55.018Z,8.04
2018-05-05T04:00:35.702Z,8.09
2018-05-05T04:03:16.340Z,8.10
2018-05-05T04:05:47.266Z,8.16
2018-05-05T04:08:16.372Z,8.18
2018-05-05T04:10:45.638Z,8.15
2018-05-05T04:13:14.943Z,8.26
2018-05-05T04:15:44.328Z,8.45
2018-05-05T04:18:13.044Z,8.61
2018-05-05T04:20:41.501Z,8.70
2018-05-05T04:23:10.399Z,8.74
2018-05-05T04:25:37.847Z,8.80
2018-05-05T04:28:06.479Z,8.91
2018-05-05T04:30:35.581Z,9.10
2018-05-05T04:33:04.420Z,9.11
2018-05-05T04:35:33.332Z,9.15
2018-05-05T04:38:02.630Z,9.21
2018-05-05T04:40:32.110Z,9.20
2018-05-05T04:43:01.523Z,9.96
2018-05-05T04:45:30.683Z,11.80
2018-05-05T04:48:00.083Z,13.20
2018-05-05T04:50:29.597Z,13.92
2018-05-05T04:52:58.251Z,14.48
2018-05-05T04:55:27.373Z,14.44
2018-05-05T04:57:56.334Z,13.36
2018-05-05T05:00:25.431Z,12.35
2018-05-05T05:02:54.523Z,11.90
2018-05-05T05:05:23.762Z,11.37
2018-05-05T05:07:52.885Z,10.84
2018-05-05T05:10:22.015Z,10.44
2018-05-05T05:12:51.311Z,10.21
2018-05-05T05:15:20.140Z,10.19
2018-05-05T05:17:49.495Z,10.20
2018-05-05T05:20:18.836Z,10.19
2018-05-05T05:22:48.104Z,10.21
2018-05-05T05:25:15.743Z,10.39
2018-05-05T05:27:43.242Z,10.38
2018-05-05T05:30:10.711Z,10.19
2018-05-05T05:32:38.163Z,10.21
2018-05-05T05:35:05.642Z,10.27
2018-05-05T05:37:33.113Z,10.27
2018-05-05T05:40:00.664Z,10.39
2018-05-05T05:42:28.173Z,10.45
2018-05-05T05:44:55.677Z,10.51
2018-05-05T05:47:23.168Z,10.44
2018-05-05T05:49:50.622Z,10.53
2018-05-05T05:52:18.165Z,10.80
2018-05-05T05:54:45.652Z,11.04
2018-05-05T05:57:13.125Z,10.97
2018-05-05T05:59:40.622Z,10.95
2018-05-05T06:02:08.162Z,11.12
2018-05-05T06:04:35.629Z,11.34
2018-05-05T06:07:03.083Z,11.38
2018-05-05T06:09:30.569Z,11.48
2018-05-05T06:11:58.141Z,11.67
2018-05-05T06:14:25.632Z,11.76
2018-05-05T06:16:53.079Z,11.88
2018-05-05T06:19:20.578Z,12.01
2018-05-05T06:21:48.029Z,12.09
2018-05-05T06:24:15.536Z,12.26
2018-05-05T06:26:43.003Z,12.41
2018-05-05T06:29:10.533Z,12.37
2018-05-05T06:31:38.085Z,12.28
2018-05-05T06:34:07.272Z,12.21
2018-05-05T06:36:35.584Z,12.07
2018-05-05T06:39:04.219Z,12.17
2018-05-05T06:41:32.244Z,12.30
2018-05-05T06:44:00.983Z,12.65
2018-05-05T06:46:30.117Z,13.07
2018-05-05T06:48:59.022Z,13.13
2018-05-05T06:51:27.973Z,13.03
2018-05-05T06:53:55.608Z,13.00
2018-05-05T06:56:23.109Z,13.31
2018-05-05T06:58:50.593Z,13.25
2018-05-05T07:01:18.120Z,13.27
2018-05-05T07:03:45.592Z,13.34
2018-05-05T07:06:13.043Z,13.39
2018-05-05T07:08:41.226Z,13.35
2018-05-05T07:11:10.185Z,13.34
2018-05-05T07:13:38.955Z,13.23
2018-05-05T07:16:06.479Z,13.28
2018-05-05T07:18:34.027Z,13.58
2018-05-05T07:21:03.247Z,13.95
2018-05-05T07:23:30.818Z,14.20
2018-05-05T07:25:58.420Z,14.43
2018-05-05T07:28:25.899Z,14.18
2018-05-05T07:30:53.398Z,14.28
2018-05-05T07:33:20.872Z,14.46
2018-05-05T07:35:48.330Z,14.59
2018-05-05T07:38:15.916Z,14.75
2018-05-05T07:40:43.395Z,14.63
2018-05-05T07:43:10.866Z,14.42
2018-05-05T07:45:38.323Z,14.38
2018-05-05T07:48:05.809Z,14.28
2018-05-05T07:50:33.314Z,14.04
2018-05-05T07:53:00.824Z,14.07
2018-05-05T07:55:28.306Z,14.12
2018-05-05T07:57:55.843Z,14.06
2018-05-05T08:00:23.296Z,14.20
2018-05-05T08:02:50.812Z,14.53
2018-05-05T08:05:18.312Z,14.71
2018-05-05T08:07:45.764Z,14.79
2018-05-05T08:10:13.242Z,14.92
2018-05-05T08:12:40.741Z,15.00
2018-05-05T08:15:08.225Z,15.14
2018-05-05T08:17:35.695Z,15.17
2018-05-05T08:20:03.184Z,15.26
2018-05-05T08:22:30.675Z,15.14
2018-05-05T08:24:58.158Z,15.03
2018-05-05T08:27:25.610Z,15.11
2018-05-05T08:29:53.195Z,15.31
2018-05-05T08:32:20.674Z,15.41
2018-05-05T08:34:48.133Z,15.47
2018-05-05T08:37:15.719Z,15.49
2018-05-05T08:39:43.200Z,15.60
2018-05-05T08:42:10.659Z,15.87
2018-05-05T08:44:38.188Z,16.19
2018-05-05T08:47:05.673Z,15.97
2018-05-05T08:49:33.157Z,15.86
2018-05-05T08:52:00.643Z,15.83
2018-05-05T08:54:28.121Z,16.13
2018-05-05T08:56:55.575Z,16.21
2018-05-05T08:59:23.095Z,16.13
2018-05-05T09:01:50.556Z,15.90
2018-05-05T09:04:18.057Z,15.96
2018-05-05T09:06:45.560Z,16.04
2018-05-05T09:09:13.052Z,16.03
2018-05-05T09:11:40.628Z,16.16
2018-05-05T09:14:08.096Z,16.18
2018-05-05T09:16:35.582Z,16.20
2018-05-05T09:19:03.189Z,16.05
2018-05-05T09:21:30.707Z,15.93
2018-05-05T09:23:58.166Z,16.06
2018-05-05T09:26:25.659Z,15.97
2018-05-05T09:28:53.164Z,15.87
2018-05-05T09:31:20.694Z,15.82
2018-05-05T09:33:48.159Z,16.00
2018-05-05T09:36:15.637Z,16.17
2018-05-05T09:38:43.124Z,16.22
2018-05-05T09:41:10.609Z,16.40
2018-05-05T09:43:38.156Z,16.39
2018-05-05T09:46:05.664Z,16.40
2018-05-05T09:48:33.211Z,16.77
2018-05-05T09:51:00.708Z,16.92
2018-05-05T09:53:28.176Z,16.98
2018-05-05T09:55:55.652Z,17.31
2018-05-05T09:58:23.162Z,17.81
2018-05-05T10:00:50.661Z,18.15
2018-05-05T10:03:18.123Z,18.22
2018-05-05T10:05:45.584Z,17.93
2018-05-05T10:08:13.117Z,17.72
2018-05-05T10:10:40.599Z,17.68
2018-05-05T10:13:08.124Z,17.57
2018-05-05T10:15:35.735Z,17.74
2018-05-05T10:18:03.199Z,18.08
2018-05-05T10:20:30.750Z,17.86
2018-05-05T10:22:58.244Z,17.73
2018-05-05T10:25:25.853Z,17.52
2018-05-05T10:27:53.316Z,17.38
2018-05-05T10:30:21.242Z,17.24
2018-05-05T10:32:48.757Z,17.31
2018-05-05T10:35:16.215Z,17.58
2018-05-05T10:37:43.772Z,17.74
2018-05-05T10:40:11.337Z,17.61
2018-05-05T10:42:38.783Z,17.48
2018-05-05T10:45:06.282Z,17.61
2018-05-05T10:47:33.751Z,17.63
2018-05-05T10:50:01.219Z,17.63
2018-05-05T10:52:28.778Z,17.60
2018-05-05T10:54:56.253Z,17.73
2018-05-05T10:57:23.843Z,17.81
2018-05-05T10:59:51.400Z,17.67
2018-05-05T11:02:18.890Z,17.67
2018-05-05T11:04:46.461Z,17.77
2018-05-05T11:07:13.912Z,17.81
2018-05-05T11:09:41.393Z,17.78
2018-05-05T11:12:08.876Z,17.78
2018-05-05T11:14:36.320Z,17.69
2018-05-05T11:17:03.826Z,17.70
2018-05-05T11:19:31.464Z,17.70
2018-05-05T11:21:58.929Z,17.76
2018-05-05T11:24:26.388Z,17.80
2018-05-05T11:26:53.911Z,17.99
2018-05-05T11:29:21.400Z,17.97
2018-05-05T11:31:48.848Z,17.81
2018-05-05T11:34:16.356Z,17.99
2018-05-05T11:36:43.862Z,18.13
2018-05-05T11:39:11.348Z,18.28
2018-05-05T11:41:38.932Z,18.00
2018-05-05T11:44:06.416Z,18.14
2018-05-05T11:46:33.886Z,18.47
2018-05-05T11:49:01.406Z,18.50
2018-05-05T11:51:28.917Z,18.53
2018-05-05T11:53:56.379Z,18.59
2018-05-05T11:56:23.876Z,18.50
2018-05-05T11:58:51.327Z,18.63
2018-05-05T12:01:18.825Z,18.82
2018-05-05T12:03:46.314Z,19.17
2018-05-05T12:06:13.797Z,19.29
2018-05-05T12:08:41.273Z,19.19
2018-05-05T12:11:08.791Z,19.19
2018-05-05T12:13:36.349Z,19.01
2018-05-05T12:16:03.833Z,18.93
2018-05-05T12:18:31.377Z,18.86
2018-05-05T12:20:58.824Z,19.00
2018-05-05T12:23:26.315Z,18.93
2018-05-05T12:25:53.928Z,19.26
2018-05-05T12:28:21.467Z,19.68
2018-05-05T12:30:48.916Z,19.67
2018-05-05T12:33:16.400Z,19.87
2018-05-05T12:35:43.938Z,20.05
2018-05-05T12:38:11.430Z,20.11
2018-05-05T12:40:38.996Z,19.83
2018-05-05T12:43:06.537Z,19.60
2018-05-05T12:45:34.025Z,19.42
2018-05-05T12:48:01.492Z,19.25
2018-05-05T12:50:28.953Z,19.37
2018-05-05T12:52:56.469Z,19.45
2018-05-05T12:55:24.022Z,19.67
2018-05-05T12:57:51.489Z,19.76
2018-05-05T13:00:19.046Z,19.78
2018-05-05T13:02:46.532Z,19.58
2018-05-05T13:05:14.015Z,19.68
2018-05-05T13:07:41.486Z,19.85
2018-05-05T13:10:08.968Z,20.01
2018-05-05T13:12:36.431Z,20.11
2018-05-05T13:15:03.917Z,20.02
2018-05-05T13:17:31.415Z,20.21
2018-05-05T13:19:58.985Z,20.39
2018-05-05T13:22:26.467Z,20.02
2018-05-05T13:24:54.040Z,19.76
2018-05-05T13:27:21.540Z,19.61
2018-05-05T13:29:49.116Z,19.44
2018-05-05T13:32:16.700Z,19.17
2018-05-05T13:34:44.196Z,18.87
2018-05-05T13:37:11.690Z,18.84
2018-05-05T13:39:39.203Z,18.90
2018-05-05T13:42:06.696Z,18.96
2018-05-05T13:44:34.178Z,19.16
2018-05-05T13:49:35.489Z,19.44
2018-05-05T13:52:02.976Z,19.43
2018-05-05T13:54:30.520Z,19.50
2018-05-05T13:56:57.983Z,19.30
2018-05-05T13:59:25.459Z,19.43
2018-05-05T14:01:52.910Z,19.57
2018-05-05T14:04:20.413Z,19.64
2018-05-05T14:06:47.895Z,19.54
2018-05-05T14:09:15.352Z,19.57
2018-05-05T14:11:42.875Z,19.48
2018-05-05T14:14:10.354Z,19.22
2018-05-05T14:16:37.995Z,19.37
2018-05-05T14:19:05.525Z,19.54
2018-05-05T14:21:32.987Z,19.54
2018-05-05T14:24:00.467Z,19.54
2018-05-05T14:26:27.961Z,19.54
2018-05-05T14:28:55.484Z,19.45
2018-05-05T14:31:22.936Z,19.50
2018-05-05T14:33:50.472Z,19.66
2018-05-05T14:36:18.063Z,19.87
2018-05-05T14:38:45.621Z,20.20
2018-05-05T14:41:13.114Z,20.42
2018-05-05T14:43:40.681Z,20.67
2018-05-05T14:46:08.156Z,20.54
2018-05-05T14:48:35.699Z,20.44
2018-05-05T14:51:03.192Z,20.19
2018-05-05T14:53:30.722Z,20.19
2018-05-05T14:55:58.207Z,20.07
2018-05-05T14:58:25.656Z,19.91
2018-05-05T15:00:53.113Z,19.87
2018-05-05T15:03:20.608Z,19.92
2018-05-05T15:05:48.103Z,19.88
2018-05-05T15:08:15.604Z,19.97
2018-05-05T15:10:43.073Z,20.26
2018-05-05T15:13:10.525Z,21.75
2018-05-05T15:15:38.071Z,23.67
2018-05-05T15:18:05.618Z,24.22
2018-05-05T15:20:33.124Z,24.43
2018-05-05T15:23:00.670Z,25.17
2018-05-05T15:25:28.135Z,25.75
2018-05-05T15:27:55.608Z,25.48
2018-05-05T15:30:23.099Z,24.75
2018-05-05T15:32:50.641Z,24.70
2018-05-05T15:35:18.137Z,24.72
2018-05-05T15:37:45.647Z,24.77
2018-05-05T15:40:13.120Z,25.37
2018-05-05T15:42:40.672Z,26.28
2018-05-05T15:45:08.183Z,26.46
2018-05-05T15:47:35.744Z,25.55
2018-05-05T15:50:03.288Z,26.20
2018-05-05T15:52:30.744Z,26.05
2018-05-05T15:54:58.298Z,25.97
2018-05-05T15:57:25.774Z,27.18
2018-05-05T15:59:53.227Z,28.12
2018-05-05T16:04:54.653Z,27.59
2018-05-05T16:07:22.111Z,26.53
2018-05-05T16:09:49.567Z,25.15
2018-05-05T16:12:17.152Z,25.71
2018-05-05T16:14:44.605Z,26.43
2018-05-05T16:17:12.055Z,25.98
2018-05-05T16:19:39.631Z,25.51
2018-05-05T16:22:07.127Z,24.43
2018-05-05T16:24:34.640Z,22.25
2018-05-05T16:27:02.145Z,21.10
2018-05-05T16:29:29.642Z,20.39
2018-05-05T16:31:57.144Z,20.20
2018-05-05T16:34:24.623Z,20.03
2018-05-05T16:36:52.079Z,19.82
2018-05-05T16:39:19.531Z,19.84
2018-05-05T16:41:47.012Z,19.65
2018-05-05T16:44:14.491Z,19.59
2018-05-05T16:46:41.952Z,19.58
2018-05-05T16:49:09.425Z,19.56
2018-05-05T16:51:36.921Z,19.47
2018-05-05T16:54:04.398Z,19.43
2018-05-05T16:56:31.887Z,19.34
2018-05-05T16:58:59.421Z,19.32
2018-05-05T17:01:26.914Z,19.26
2018-05-05T17:03:54.465Z,19.23
2018-05-05T17:06:21.954Z,19.10
2018-05-05T17:08:49.451Z,18.99
2018-05-05T17:11:16.963Z,18.94
2018-05-05T17:13:44.428Z,18.88
2018-05-05T17:16:11.875Z,18.85
2018-05-05T17:18:39.370Z,18.84
2018-05-05T17:21:06.845Z,18.84
2018-05-05T17:23:34.295Z,18.81
2018-05-05T17:26:01.764Z,18.78
2018-05-05T17:28:29.353Z,18.77
2018-05-05T17:30:56.829Z,18.71
2018-05-05T17:33:24.316Z,18.67
2018-05-05T17:35:51.845Z,18.59
2018-05-05T17:38:19.369Z,18.54
2018-05-05T17:40:46.858Z,18.50
2018-05-05T17:43:14.397Z,18.44
2018-05-05T17:45:41.972Z,18.42
2018-05-05T17:48:09.484Z,18.40
2018-05-05T17:50:36.977Z,18.36
2018-05-05T17:53:04.517Z,18.32
2018-05-05T17:55:32.042Z,18.28
2018-05-05T17:57:59.513Z,18.24
2018-05-05T18:00:27.014Z,18.20
2018-05-05T18:02:54.581Z,18.16
2018-05-05T18:05:22.036Z,18.15
2018-05-05T18:07:49.524Z,18.09
2018-05-05T18:10:17.016Z,18.06
2018-05-05T18:12:44.534Z,18.02
2018-05-05T18:15:12.014Z,18.00
2018-05-05T18:17:39.511Z,17.98
2018-05-05T18:20:08.202Z,17.94
2018-05-05T18:22:35.671Z,17.92
2018-05-05T18:25:03.174Z,17.91
2018-05-05T18:27:30.755Z,17.86
2018-05-05T18:29:58.235Z,17.78
2018-05-05T18:32:25.723Z,17.71
2018-05-05T18:34:53.179Z,17.64
2018-05-05T18:37:20.653Z,17.58
2018-05-05T18:39:48.166Z,17.54
2018-05-05T18:42:15.671Z,17.52
2018-05-05T18:44:43.151Z,17.50
2018-05-05T18:47:10.616Z,17.48
2018-05-05T18:49:38.204Z,17.44
2018-05-05T18:52:05.693Z,17.41
2018-05-05T18:54:33.373Z,17.32
2018-05-05T18:57:00.867Z,17.24
2018-05-05T18:59:28.365Z,17.17
2018-05-05T19:01:55.880Z,17.13
2018-05-05T19:04:23.333Z,17.09
2018-05-05T19:06:51.081Z,17.02
2018-05-05T19:09:18.581Z,16.96
2018-05-05T19:11:46.051Z,16.93
2018-05-05T19:14:13.563Z,16.88
2018-05-05T19:16:41.061Z,16.81
2018-05-05T19:19:08.552Z,16.75
2018-05-05T19:21:36.071Z,16.74
2018-05-05T19:24:03.579Z,16.69
2018-05-05T19:26:31.068Z,16.61
2018-05-05T19:28:58.589Z,16.55
2018-05-05T19:31:26.176Z,16.48
2018-05-05T19:33:53.635Z,16.42
2018-05-05T19:36:21.105Z,16.35
2018-05-05T19:38:48.665Z,16.29
2018-05-05T19:41:16.238Z,16.24
2018-05-05T19:43:43.710Z,16.18
2018-05-05T19:46:11.254Z,16.14
2018-05-05T19:48:38.784Z,16.09
2018-05-05T19:51:06.334Z,16.05
2018-05-05T19:53:33.877Z,15.99
2018-05-05T19:56:01.431Z,15.93
2018-05-05T19:58:28.960Z,15.89
2018-05-05T20:00:56.428Z,15.82
2018-05-05T20:03:23.893Z,15.77
2018-05-05T20:05:51.353Z,15.74
2018-05-05T20:08:18.859Z,15.73
2018-05-05T20:10:46.404Z,15.70
2018-05-05T20:13:13.931Z,15.62
2018-05-05T20:15:41.418Z,15.57
2018-05-05T20:18:08.875Z,15.51
2018-05-05T20:20:36.383Z,15.49
2018-05-05T20:23:03.936Z,15.46
2018-05-05T20:25:31.358Z,15.43
2018-05-05T20:27:58.891Z,15.40
2018-05-05T20:30:26.345Z,15.33
2018-05-05T20:32:53.835Z,15.30
2018-05-05T20:35:21.343Z,15.25
2018-05-05T20:37:48.814Z,15.20
2018-05-05T20:40:16.384Z,15.16
2018-05-05T20:42:43.855Z,15.13
2018-05-05T20:45:11.308Z,15.07
2018-05-05T20:47:38.988Z,15.01
2018-05-05T20:50:06.446Z,15.01
2018-05-05T20:52:33.963Z,15.03
2018-05-05T20:55:01.488Z,14.99
2018-05-05T20:57:28.969Z,14.92
2018-05-05T20:59:56.431Z,14.89
2018-05-05T21:02:23.946Z,14.84
2018-05-05T21:04:51.554Z,14.80
2018-05-05T21:07:18.975Z,14.78
2018-05-05T21:09:46.489Z,14.75
2018-05-05T21:12:13.976Z,14.70
2018-05-05T21:14:41.490Z,14.65
2018-05-05T21:17:08.992Z,14.62
2018-05-05T21:19:36.461Z,14.58
2018-05-05T21:22:03.920Z,14.56
2018-05-05T21:24:31.498Z,14.55
2018-05-05T21:26:59.035Z,14.53
2018-05-05T21:29:26.495Z,14.48
2018-05-05T21:31:54.081Z,14.44
2018-05-05T21:34:21.590Z,14.43
2018-05-05T21:36:49.075Z,14.38
2018-05-05T21:39:16.627Z,14.36
2018-05-05T21:41:44.151Z,14.30
2018-05-05T21:44:11.746Z,14.27
2018-05-05T21:46:39.262Z,14.25
2018-05-05T21:49:06.780Z,14.22
2018-05-05T21:51:34.232Z,14.18
2018-05-05T21:54:01.688Z,14.12
2018-05-05T21:56:29.190Z,14.08
2018-05-05T21:58:56.657Z,14.05
2018-05-05T22:01:24.133Z,14.00
2018-05-05T22:03:51.620Z,14.00
2018-05-05T22:06:19.114Z,13.98
2018-05-05T22:08:46.579Z,13.96
2018-05-05T22:11:14.035Z,13.93
2018-05-05T22:13:41.640Z,13.86
2018-05-05T22:16:09.100Z,13.83
2018-05-05T22:18:36.587Z,13.78
2018-05-05T22:21:04.210Z,13.74
2018-05-05T22:23:31.676Z,13.67
2018-05-05T22:25:59.222Z,13.58
2018-05-05T22:28:26.697Z,13.56
2018-05-05T22:30:54.198Z,13.50
2018-05-05T22:33:21.706Z,13.47
2018-05-05T22:35:49.217Z,13.46
2018-05-05T22:38:16.711Z,13.49
2018-05-05T22:40:44.210Z,13.51
2018-05-05T22:43:11.693Z,13.50
2018-05-05T22:45:39.165Z,13.48
2018-05-05T22:48:07.878Z,13.42
2018-05-05T22:50:36.554Z,13.34
2018-05-05T22:53:04.120Z,13.32
2018-05-05T22:55:31.640Z,13.31
2018-05-05T22:57:59.123Z,13.28
2018-05-05T23:00:28.288Z,13.25
2018-05-05T23:02:55.764Z,13.22
2018-05-05T23:05:23.260Z,13.19
2018-05-05T23:07:50.813Z,13.15
2018-05-05T23:10:18.340Z,13.10
2018-05-05T23:12:45.791Z,13.08
2018-05-05T23:15:13.269Z,13.07
2018-05-05T23:17:40.752Z,13.04
2018-05-05T23:20:08.244Z,13.00
2018-05-05T23:22:35.763Z,12.95
2018-05-05T23:25:03.254Z,12.89
2018-05-05T23:27:30.753Z,12.86
2018-05-05T23:29:58.260Z,12.87
2018-05-05T23:32:26.446Z,12.82
2018-05-05T23:34:53.931Z,12.80
2018-05-05T23:37:21.390Z,12.76
2018-05-05T23:39:48.876Z,12.76
2018-05-05T23:42:16.378Z,12.73
2018-05-05T23:44:43.872Z,12.74
2018-05-05T23:47:11.324Z,12.67
2018-05-05T23:49:38.857Z,12.63
2018-05-05T23:52:06.345Z,12.59
2018-05-05T23:54:33.799Z,12.54
2018-05-05T23:57:01.285Z,12.49
2018-05-05T23:59:28.773Z,12.46
